createdAt,value
2019-03-12T00:04:06.036Z,2.00
2019-03-12T00:06:34.644Z,1.90
2019-03-12T00:11:39.220Z,2.10
2019-03-12T00:14:07.874Z,2.13
2019-03-12T00:16:36.559Z,1.40
2019-03-12T00:19:05.243Z,1.40
2019-03-12T00:21:33.910Z,1.40
2019-03-12T00:24:02.626Z,1.27
2019-03-12T00:26:31.191Z,1.70
2019-03-12T00:28:59.830Z,1.10
2019-03-12T00:31:28.539Z,1.60
2019-03-12T00:33:57.239Z,1.40
2019-03-12T00:36:45.057Z,1.53
2019-03-12T00:39:13.743Z,1.10
2019-03-12T00:41:42.402Z,1.83
2019-03-12T00:44:11.099Z,2.27
2019-03-12T00:46:39.756Z,1.67
2019-03-12T00:49:08.480Z,1.90
2019-03-12T00:51:37.173Z,1.67
2019-03-12T00:54:05.818Z,1.83
2019-03-12T00:56:53.771Z,1.80
2019-03-12T00:59:22.352Z,1.97
2019-03-12T01:01:51.044Z,1.53
2019-03-12T01:04:19.680Z,1.33
2019-03-12T01:06:48.395Z,1.33
2019-03-12T01:09:17.050Z,1.60
2019-03-12T01:11:45.612Z,1.57
2019-03-12T01:14:14.298Z,1.60
2019-03-12T01:16:42.952Z,3.03
2019-03-12T01:19:11.576Z,1.97
2019-03-12T01:21:40.282Z,2.03
2019-03-12T01:24:08.970Z,1.70
2019-03-12T01:26:37.662Z,2.90
2019-03-12T01:29:06.310Z,1.70
2019-03-12T01:31:35.003Z,1.70
2019-03-12T01:34:03.704Z,1.80
2019-03-12T01:36:32.558Z,1.73
2019-03-12T01:39:01.195Z,1.93
2019-03-12T01:41:29.853Z,1.40
2019-03-12T01:43:58.472Z,1.97
2019-03-12T01:46:27.121Z,2.37
2019-03-12T01:48:55.870Z,1.73
2019-03-12T01:51:24.523Z,2.40
2019-03-12T01:53:53.216Z,2.27
2019-03-12T01:56:21.754Z,1.67
2019-03-12T01:58:50.390Z,1.80
2019-03-12T02:01:38.288Z,1.80
2019-03-12T02:04:06.972Z,1.70
2019-03-12T02:06:35.613Z,2.37
2019-03-12T02:11:58.750Z,2.00
2019-03-12T02:15:07.238Z,2.00
2019-03-12T02:17:35.895Z,1.57
2019-03-12T02:20:44.348Z,1.67
2019-03-12T02:23:13.027Z,1.93
2019-03-12T02:25:41.660Z,1.93
2019-03-12T02:28:10.443Z,2.33
2019-03-12T02:30:39.108Z,2.60
2019-03-12T02:33:07.759Z,1.70
2019-03-12T02:35:36.454Z,2.20
2019-03-12T02:38:05.181Z,2.07
2019-03-12T02:40:33.785Z,2.23
2019-03-12T02:43:02.470Z,2.20
2019-03-12T02:45:31.139Z,1.67
2019-03-12T02:47:59.806Z,1.87
2019-03-12T02:50:28.457Z,1.80
2019-03-12T02:52:57.156Z,1.63
2019-03-12T02:55:25.787Z,1.93
2019-03-12T02:57:54.486Z,2.30
2019-03-12T03:01:02.933Z,1.43
2019-03-12T03:03:31.620Z,1.87
2019-03-12T03:06:19.391Z,2.00
2019-03-12T03:08:48.149Z,2.37
2019-03-12T03:11:16.867Z,2.40
2019-03-12T03:13:45.472Z,2.40
2019-03-12T03:16:14.087Z,1.87
2019-03-12T03:18:42.841Z,2.80
2019-03-12T03:21:11.466Z,2.17
2019-03-12T03:23:40.120Z,1.97
2019-03-12T03:26:08.794Z,2.50
2019-03-12T03:28:37.383Z,2.63
2019-03-12T03:31:06.137Z,1.90
2019-03-12T03:33:34.811Z,3.30
2019-03-12T03:36:03.531Z,2.27
2019-03-12T03:38:32.190Z,2.00
2019-03-12T03:41:00.871Z,2.90
2019-03-12T03:43:29.519Z,3.20
2019-03-12T03:45:58.218Z,2.30
2019-03-12T03:48:26.893Z,2.30
2019-03-12T03:50:55.526Z,2.27
2019-03-12T03:53:24.229Z,2.17
2019-03-12T03:55:52.880Z,2.40
2019-03-12T03:58:21.537Z,2.00
2019-03-12T04:00:50.229Z,2.50
2019-03-12T04:03:18.955Z,3.30
2019-03-12T04:05:47.610Z,2.07
2019-03-12T04:08:16.423Z,2.20
2019-03-12T04:10:45.139Z,2.57
2019-03-12T04:13:13.848Z,2.80
2019-03-12T04:15:42.519Z,2.30
2019-03-12T04:18:11.194Z,2.17
2019-03-12T04:20:39.877Z,3.20
2019-03-12T04:23:08.638Z,2.23
2019-03-12T04:25:37.315Z,2.30
2019-03-12T04:28:06.055Z,3.00
2019-03-12T04:30:34.761Z,2.37
2019-03-12T04:33:03.419Z,2.63
2019-03-12T04:36:11.906Z,2.33
2019-03-12T04:38:40.478Z,2.30
2019-03-12T04:41:09.122Z,1.90
2019-03-12T04:43:37.744Z,2.33
2019-03-12T04:46:06.395Z,2.50
2019-03-12T04:48:35.066Z,2.57
2019-03-12T04:51:03.718Z,2.10
2019-03-12T04:53:32.407Z,1.47
2019-03-12T04:56:01.031Z,2.73
2019-03-12T04:58:29.718Z,2.27
2019-03-12T05:00:58.383Z,2.07
2019-03-12T05:03:26.995Z,2.20
2019-03-12T05:05:55.632Z,1.87
2019-03-12T05:08:24.298Z,1.93
2019-03-12T05:10:53.000Z,2.67
2019-03-12T05:13:21.692Z,2.50
2019-03-12T05:16:30.159Z,2.00
2019-03-12T05:18:58.795Z,2.27
2019-03-12T05:21:27.490Z,2.03
2019-03-12T05:23:56.103Z,2.20
2019-03-12T05:26:44.048Z,2.50
2019-03-12T05:32:20.775Z,2.67
2019-03-12T05:34:49.469Z,2.10
2019-03-12T05:37:37.309Z,2.67
2019-03-12T05:40:25.281Z,2.17
2019-03-12T05:43:13.161Z,2.27
2019-03-12T05:46:00.958Z,1.90
2019-03-12T05:48:29.577Z,1.60
2019-03-12T05:54:27.250Z,2.27
2019-03-12T05:57:15.216Z,2.07
2019-03-12T05:59:43.848Z,1.73
2019-03-12T06:02:12.475Z,1.97
2019-03-12T06:05:00.425Z,1.97
2019-03-12T06:07:29.097Z,2.27
2019-03-12T06:09:57.732Z,2.07
2019-03-12T06:12:26.366Z,2.00
2019-03-12T06:14:55.066Z,2.13
2019-03-12T06:17:23.779Z,2.90
2019-03-12T06:19:52.452Z,2.30
2019-03-12T06:22:21.101Z,2.03
2019-03-12T06:24:49.747Z,1.80
2019-03-12T06:27:18.554Z,1.70
2019-03-12T06:29:47.171Z,3.00
2019-03-12T06:32:34.971Z,1.97
2019-03-12T06:41:39.057Z,2.17
2019-03-12T06:44:26.863Z,1.83
2019-03-12T06:47:14.562Z,1.60
2019-03-12T06:50:02.312Z,2.53
2019-03-12T06:52:50.075Z,1.77
2019-03-12T06:55:41.022Z,1.97
2019-03-12T06:58:48.085Z,2.07
2019-03-12T07:01:35.860Z,1.80
2019-03-12T07:07:06.838Z,1.60
2019-03-12T07:09:52.543Z,1.67
2019-03-12T07:12:40.361Z,1.53
2019-03-12T07:15:48.829Z,1.53
2019-03-12T07:18:36.592Z,2.00
2019-03-12T07:21:24.454Z,1.90
2019-03-12T07:26:51.760Z,1.50
2019-03-12T07:40:20.265Z,1.97
2019-03-12T07:50:59.569Z,1.70
2019-03-12T07:53:58.948Z,2.07
2019-03-12T07:56:36.914Z,2.07
2019-03-12T07:59:24.700Z,1.53
2019-03-12T08:04:47.952Z,1.80
2019-03-12T08:07:35.785Z,1.57
2019-03-12T08:10:44.250Z,1.87
2019-03-12T08:13:32.029Z,2.20
2019-03-12T08:21:39.231Z,1.83
2019-03-12T08:32:30.548Z,1.77
2019-03-12T08:35:18.195Z,1.53
2019-03-12T08:40:52.107Z,1.50
2019-03-12T08:43:30.960Z,1.70
2019-03-12T08:48:58.386Z,1.77
2019-03-12T08:51:46.215Z,1.53
2019-03-12T08:54:33.991Z,1.60
2019-03-12T09:00:01.473Z,1.50
2019-03-12T09:02:49.187Z,2.30
2019-03-12T09:05:36.999Z,2.10
2019-03-12T09:11:04.403Z,1.33
2019-03-12T09:13:52.704Z,1.93
2019-03-12T09:16:59.824Z,2.97
2019-03-12T09:25:06.619Z,1.50
2019-03-12T09:31:02.564Z,1.73
2019-03-12T09:33:50.190Z,1.30
2019-03-12T09:36:38.005Z,1.60
2019-03-12T09:42:33.948Z,1.53
2019-03-12T09:51:15.368Z,1.23
2019-03-12T09:54:03.209Z,1.10
2019-03-12T09:56:50.952Z,0.90
2019-03-12T09:59:38.722Z,0.83
2019-03-12T10:05:05.773Z,1.63
2019-03-12T10:07:53.595Z,1.10
2019-03-12T10:10:41.585Z,0.87
2019-03-12T10:13:29.408Z,0.70
2019-03-12T10:19:06.423Z,1.90
2019-03-12T10:29:52.226Z,0.90
2019-03-12T10:32:59.217Z,0.90
2019-03-12T10:38:42.973Z,1.23
2019-03-12T10:43:47.064Z,0.80
2019-03-12T10:46:34.847Z,0.60
2019-03-12T10:49:03.539Z,0.73
2019-03-12T10:57:00.778Z,0.90
2019-03-12T10:59:48.728Z,0.83
2019-03-12T11:02:17.378Z,0.93
2019-03-12T11:04:46.075Z,1.77
2019-03-12T11:07:16.781Z,0.77
2019-03-12T11:09:45.150Z,0.70
2019-03-12T11:12:13.806Z,0.90
2019-03-12T11:14:42.462Z,0.60
2019-03-12T11:17:11.393Z,0.70
2019-03-12T11:19:39.998Z,0.83
2019-03-12T11:22:27.995Z,0.80
2019-03-12T11:24:56.620Z,0.90
2019-03-12T11:27:37.137Z,1.90
2019-03-12T11:30:45.604Z,0.70
2019-03-12T11:33:14.367Z,0.90
2019-03-12T11:35:43.062Z,0.80
2019-03-12T11:38:11.651Z,0.60
2019-03-12T11:43:27.930Z,0.60
2019-03-12T11:45:56.760Z,1.10
2019-03-12T11:48:25.541Z,0.93
2019-03-12T11:51:13.345Z,0.97
2019-03-12T11:56:22.714Z,0.83
2019-03-12T11:58:51.366Z,0.97
2019-03-12T12:01:20.128Z,1.00
2019-03-12T12:03:48.801Z,1.13
2019-03-12T12:06:17.423Z,1.00
2019-03-12T12:08:46.152Z,0.90
2019-03-12T12:11:14.877Z,1.13
2019-03-12T12:14:02.745Z,1.07
2019-03-12T12:16:31.413Z,1.40
2019-03-12T12:19:19.311Z,1.00
2019-03-12T12:21:48.012Z,1.33
2019-03-12T12:24:16.660Z,0.70
2019-03-12T12:26:45.354Z,0.93
2019-03-12T12:29:33.192Z,0.93
2019-03-12T12:32:01.856Z,1.57
2019-03-12T12:34:30.435Z,0.97
2019-03-12T12:36:59.116Z,1.13
2019-03-12T12:39:27.810Z,1.03
2019-03-12T12:41:56.473Z,1.77
2019-03-12T12:44:44.403Z,0.77
2019-03-12T12:47:13.041Z,0.87
2019-03-12T12:49:41.695Z,1.00
2019-03-12T12:52:10.345Z,0.80
2019-03-12T12:54:39.031Z,0.73
2019-03-12T12:57:07.677Z,0.90
2019-03-12T12:59:36.446Z,0.80
2019-03-12T13:02:05.103Z,0.90
2019-03-12T13:04:33.792Z,0.80
2019-03-12T13:07:02.440Z,0.90
2019-03-12T13:09:31.143Z,1.10
2019-03-12T13:11:59.772Z,0.80
2019-03-12T13:14:40.698Z,0.83
2019-03-12T13:16:58.823Z,0.70
2019-03-12T13:19:27.560Z,1.00
2019-03-12T13:21:56.301Z,0.80
2019-03-12T13:24:24.989Z,1.13
2019-03-12T13:26:53.641Z,0.93
2019-03-12T13:29:22.331Z,1.23
2019-03-12T13:31:51.024Z,1.03
2019-03-12T13:34:19.688Z,0.83
2019-03-12T13:36:48.411Z,1.67
2019-03-12T13:39:17.049Z,0.90
2019-03-12T13:41:45.748Z,1.00
2019-03-12T13:44:14.454Z,0.67
2019-03-12T13:47:02.273Z,0.50
2019-03-12T13:49:30.925Z,1.00
2019-03-12T13:51:59.583Z,0.80
2019-03-12T13:54:47.424Z,1.03
2019-03-12T13:57:16.091Z,0.80
2019-03-12T13:59:44.720Z,0.83
2019-03-12T14:05:07.348Z,0.90
2019-03-12T14:07:35.999Z,0.70
2019-03-12T14:10:44.465Z,1.03
2019-03-12T14:13:13.133Z,0.83
2019-03-12T14:15:41.828Z,1.00
2019-03-12T14:18:10.537Z,1.20
2019-03-12T14:21:18.962Z,0.83
2019-03-12T14:24:07.013Z,1.10
2019-03-12T14:26:35.746Z,1.10
2019-03-12T14:29:23.716Z,0.77
2019-03-12T14:32:12.205Z,0.60
2019-03-12T14:34:42.040Z,1.10
2019-03-12T14:37:10.690Z,1.37
2019-03-12T14:39:39.399Z,0.70
2019-03-12T14:42:08.061Z,1.20
2019-03-12T14:44:36.787Z,1.30
2019-03-12T14:47:06.376Z,1.00
2019-03-12T14:49:35.929Z,1.03
2019-03-12T14:52:44.425Z,1.10
2019-03-12T14:55:13.128Z,1.17
2019-03-12T14:57:41.898Z,1.07
2019-03-12T15:00:50.310Z,1.30
2019-03-12T15:03:18.933Z,1.07
2019-03-12T15:05:47.630Z,1.20
2019-03-12T15:08:35.521Z,1.13
2019-03-12T15:11:04.217Z,1.03
2019-03-12T15:13:32.912Z,1.23
2019-03-12T15:16:01.565Z,1.63
2019-03-12T15:18:52.011Z,1.50
2019-03-12T15:21:19.929Z,1.17
2019-03-12T15:23:48.617Z,1.27
2019-03-12T15:26:17.341Z,1.27
2019-03-12T15:28:46.057Z,1.10
2019-03-12T15:31:14.718Z,1.23
2019-03-12T15:34:02.665Z,1.03
2019-03-12T15:36:31.337Z,1.20
2019-03-12T15:39:00.037Z,1.20
2019-03-12T15:41:28.624Z,1.83
2019-03-12T15:44:19.034Z,1.30
2019-03-12T15:46:46.856Z,1.50
2019-03-12T15:49:15.542Z,1.50
2019-03-12T15:51:44.304Z,0.90
2019-03-12T15:54:12.998Z,1.13
2019-03-12T15:56:41.594Z,0.93
2019-03-12T15:59:10.282Z,1.20
2019-03-12T16:01:38.917Z,1.13
2019-03-12T16:04:07.577Z,1.10
2019-03-12T16:06:36.271Z,1.03
2019-03-12T16:09:44.694Z,1.47
2019-03-12T16:12:13.367Z,1.53
2019-03-12T16:14:42.038Z,0.90
2019-03-12T16:17:10.822Z,1.10
2019-03-12T16:19:58.745Z,1.90
2019-03-12T16:22:27.437Z,0.93
2019-03-12T16:24:56.136Z,1.30
2019-03-12T16:27:24.698Z,1.37
2019-03-12T16:29:53.408Z,1.30
2019-03-12T16:32:22.112Z,1.30
2019-03-12T16:34:50.766Z,1.17
2019-03-12T16:37:38.756Z,1.17
2019-03-12T16:40:47.232Z,1.00
2019-03-12T16:43:15.926Z,1.40
2019-03-12T16:45:44.576Z,0.90
2019-03-12T16:48:13.327Z,1.10
2019-03-12T16:50:42.030Z,1.20
2019-03-12T16:53:10.740Z,1.00
2019-03-12T16:55:39.376Z,1.30
2019-03-12T16:58:08.059Z,1.43
2019-03-12T17:00:36.750Z,1.20
2019-03-12T17:03:12.822Z,1.53
2019-03-12T17:05:41.485Z,1.00
2019-03-12T17:08:10.260Z,1.37
2019-03-12T17:10:38.977Z,0.90
2019-03-12T17:13:07.913Z,1.20
2019-03-12T17:15:36.657Z,1.20
2019-03-12T17:18:05.537Z,1.47
2019-03-12T17:20:34.268Z,1.07
2019-03-12T17:23:03.044Z,0.80
2019-03-12T17:25:51.256Z,1.37
2019-03-12T17:28:20.222Z,1.07
2019-03-12T17:31:10.740Z,0.97
2019-03-12T17:36:13.758Z,1.20
2019-03-12T17:38:56.825Z,1.50
2019-03-12T17:41:13.169Z,1.20
2019-03-12T17:44:01.157Z,1.33
2019-03-12T17:49:30.788Z,1.40
2019-03-12T17:51:59.506Z,1.00
2019-03-12T17:54:28.305Z,1.30
2019-03-12T17:56:57.039Z,1.40
2019-03-12T17:59:45.000Z,0.90
2019-03-12T18:02:13.743Z,1.20
2019-03-12T18:04:42.461Z,1.20
2019-03-12T18:07:11.149Z,1.30
2019-03-12T18:09:39.873Z,1.73
2019-03-12T18:12:08.688Z,1.10
2019-03-12T18:14:37.445Z,0.83
2019-03-12T18:17:06.260Z,1.37
2019-03-12T18:19:35.017Z,1.03
2019-03-12T18:22:03.689Z,0.97
2019-03-12T18:24:51.682Z,1.00
2019-03-12T18:27:20.452Z,1.10
2019-03-12T18:29:49.189Z,1.53
2019-03-12T18:32:17.767Z,1.17
2019-03-12T18:34:46.533Z,1.20
2019-03-12T18:37:15.296Z,1.20
2019-03-12T18:39:44.047Z,1.03
2019-03-12T18:42:12.870Z,1.40
2019-03-12T18:44:41.625Z,2.17
2019-03-12T18:47:10.452Z,1.70
2019-03-12T18:49:39.252Z,1.30
2019-03-12T18:52:08.017Z,1.30
2019-03-12T18:54:36.918Z,1.10
2019-03-12T18:57:05.793Z,1.10
2019-03-12T18:59:53.688Z,1.40
2019-03-12T19:02:22.428Z,1.23
2019-03-12T19:04:51.367Z,1.53
2019-03-12T19:10:28.557Z,1.10
2019-03-12T19:12:57.493Z,1.10
2019-03-12T19:15:26.384Z,0.80
2019-03-12T19:17:55.374Z,1.30
2019-03-12T19:20:24.362Z,1.50
2019-03-12T19:22:53.304Z,1.40
2019-03-12T19:26:00.656Z,1.47
2019-03-12T19:28:48.808Z,1.30
2019-03-12T19:31:36.793Z,1.30
2019-03-12T19:36:41.611Z,1.30
2019-03-12T19:41:48.520Z,1.70
2019-03-12T19:44:17.406Z,1.60
2019-03-12T19:46:46.338Z,1.30
2019-03-12T19:54:40.271Z,1.60
2019-03-12T19:57:09.295Z,1.17
2019-03-12T19:59:38.262Z,1.17
2019-03-12T20:02:47.000Z,1.33
2019-03-12T20:05:17.143Z,1.40
2019-03-12T20:07:46.208Z,2.53
2019-03-12T20:10:54.811Z,2.33
2019-03-12T20:14:02.231Z,1.43
2019-03-12T20:17:09.891Z,1.37
2019-03-12T20:20:17.422Z,1.43
2019-03-12T20:23:26.032Z,1.40
2019-03-12T20:26:34.691Z,1.40
2019-03-12T20:29:42.238Z,1.50
2019-03-12T20:32:49.758Z,1.33
2019-03-12T20:35:57.181Z,1.30
2019-03-12T20:39:05.302Z,1.30
2019-03-12T20:42:13.328Z,1.77
2019-03-12T20:45:22.133Z,2.63
2019-03-12T20:48:29.553Z,1.73
2019-03-12T20:51:39.307Z,1.40
2019-03-12T20:54:46.646Z,1.67
2019-03-12T20:57:55.662Z,1.30
2019-03-12T21:04:33.412Z,1.30
2019-03-12T21:07:40.784Z,1.20
2019-03-12T21:10:49.459Z,1.77
2019-03-12T21:13:57.139Z,1.50
2019-03-12T21:16:47.043Z,1.20
2019-03-12T21:19:54.453Z,1.17
2019-03-12T21:23:03.528Z,1.20
2019-03-12T21:26:11.033Z,0.93
2019-03-12T21:29:19.861Z,1.40
2019-03-12T21:32:08.056Z,1.20
2019-03-12T21:34:37.424Z,1.30
2019-03-12T21:37:06.540Z,0.97
2019-03-12T21:39:35.701Z,1.30
2019-03-12T21:45:31.979Z,0.97
2019-03-12T21:48:00.636Z,0.90
2019-03-12T21:50:29.342Z,1.00
2019-03-12T21:53:18.844Z,2.83
2019-03-12T21:55:47.738Z,0.97
2019-03-12T21:58:16.546Z,1.13
2019-03-12T22:00:45.524Z,1.20
2019-03-12T22:03:16.430Z,1.17
2019-03-12T22:05:44.866Z,1.10
2019-03-12T22:08:32.808Z,1.15
2019-03-12T22:11:01.564Z,1.70
2019-03-12T22:13:49.574Z,1.03
2019-03-12T22:19:25.104Z,1.10
2019-03-12T22:27:04.986Z,1.17
2019-03-12T22:30:13.451Z,0.90
2019-03-12T22:33:01.795Z,1.00
2019-03-12T22:35:49.961Z,0.80
2019-03-12T22:38:18.783Z,1.00
2019-03-12T22:40:47.509Z,1.57
2019-03-12T22:43:16.713Z,1.10
2019-03-12T22:45:45.567Z,1.13
2019-03-12T22:48:14.250Z,1.00
2019-03-12T22:50:43.302Z,1.00
2019-03-12T22:53:12.525Z,1.23
2019-03-12T22:56:00.626Z,0.90
2019-03-12T22:58:29.539Z,1.20
2019-03-12T23:01:17.660Z,1.43
2019-03-12T23:03:46.520Z,1.37
2019-03-12T23:06:15.544Z,1.13
2019-03-12T23:08:44.271Z,1.47
2019-03-12T23:11:12.947Z,1.43
2019-03-12T23:13:41.636Z,1.00
2019-03-12T23:16:10.420Z,1.03
2019-03-12T23:18:39.319Z,1.37
2019-03-12T23:23:57.238Z,1.27
2019-03-12T23:26:25.853Z,1.47
2019-03-12T23:28:54.806Z,1.33
2019-03-12T23:31:42.835Z,1.30
2019-03-12T23:36:59.227Z,1.20
2019-03-12T23:39:27.990Z,1.30
2019-03-12T23:41:56.621Z,1.30
2019-03-12T23:44:25.581Z,1.30
2019-03-12T23:46:54.645Z,1.87
2019-03-12T23:52:42.832Z,1.57
2019-03-12T23:55:51.264Z,1.60
2019-03-12T23:58:19.953Z,1.33
